createdAt,value
2019-03-08T00:01:06.651Z,92.50
2019-03-08T00:03:35.253Z,92.50
2019-03-08T00:06:23.132Z,92.60
2019-03-08T00:08:51.703Z,92.70
2019-03-08T00:11:20.250Z,92.80
2019-03-08T00:13:48.716Z,92.90
2019-03-08T00:16:17.322Z,93.10
2019-03-08T00:18:45.999Z,93.40
2019-03-08T00:21:14.639Z,93.50
2019-03-08T00:23:43.185Z,93.80
2019-03-08T00:26:11.709Z,94.10
2019-03-08T00:28:40.173Z,94.40
2019-03-08T00:31:09.343Z,94.60
2019-03-08T00:33:37.911Z,95.10
2019-03-08T00:36:25.813Z,95.40
2019-03-08T00:38:54.394Z,95.60
2019-03-08T00:41:22.922Z,95.80
2019-03-08T00:43:51.449Z,96.10
2019-03-08T00:46:19.930Z,96.20
2019-03-08T00:48:48.473Z,96.40
2019-03-08T00:51:17.024Z,96.60
2019-03-08T00:53:45.648Z,96.90
2019-03-08T00:56:14.266Z,97.10
2019-03-08T00:58:42.923Z,97.40
2019-03-08T01:01:18.704Z,97.60
2019-03-08T01:03:47.280Z,97.70
2019-03-08T01:06:15.817Z,97.90
2019-03-08T01:08:44.342Z,98.20
2019-03-08T01:11:12.885Z,98.40
2019-03-08T01:13:41.695Z,98.40
2019-03-08T01:16:10.624Z,98.70
2019-03-08T01:18:39.166Z,98.80
2019-03-08T01:21:07.836Z,98.90
2019-03-08T01:23:36.378Z,99.10
2019-03-08T01:26:05.414Z,99.60
2019-03-08T01:28:34.980Z,99.30
2019-03-08T01:31:06.842Z,99.40
2019-03-08T01:33:35.368Z,99.40
2019-03-08T01:36:15.811Z,99.50
2019-03-08T01:38:44.360Z,99.50
2019-03-08T01:41:12.895Z,99.60
2019-03-08T01:43:41.424Z,99.70
2019-03-08T01:46:10.026Z,99.70
2019-03-08T01:48:38.490Z,99.70
2019-03-08T01:51:06.940Z,99.60
2019-03-08T01:53:35.479Z,99.60
2019-03-08T01:56:04.043Z,99.50
2019-03-08T01:58:32.707Z,99.40
2019-03-08T02:01:01.243Z,99.40
2019-03-08T02:03:29.780Z,99.40
2019-03-08T02:05:58.314Z,99.30
2019-03-08T02:08:26.856Z,99.30
2019-03-08T02:10:55.394Z,99.20
2019-03-08T02:13:23.924Z,99.20
2019-03-08T02:15:52.468Z,99.30
2019-03-08T02:18:21.012Z,99.40
2019-03-08T02:20:49.546Z,99.40
2019-03-08T02:23:18.083Z,99.50
2019-03-08T02:25:46.629Z,99.70
2019-03-08T02:28:15.155Z,99.80
2019-03-08T02:30:43.614Z,99.90
2019-03-08T02:33:12.193Z,99.90
2019-03-08T02:35:40.883Z,99.90
2019-03-08T02:38:09.858Z,99.90
2019-03-08T02:40:39.826Z,99.90
2019-03-08T02:43:10.631Z,99.90
2019-03-08T02:45:39.158Z,99.90
2019-03-08T02:48:07.678Z,99.90
2019-03-08T02:50:36.421Z,99.90
2019-03-08T02:53:05.184Z,99.90
2019-03-08T02:55:34.074Z,99.90
2019-03-08T02:58:02.761Z,99.90
2019-03-08T03:03:04.746Z,99.90
2019-03-08T03:05:33.414Z,99.90
2019-03-08T03:08:02.646Z,99.90
2019-03-08T03:10:31.192Z,99.90
2019-03-08T03:12:59.705Z,99.90
2019-03-08T03:15:28.157Z,99.90
2019-03-08T03:17:56.688Z,99.90
2019-03-08T03:20:25.219Z,99.90
2019-03-08T03:22:54.046Z,99.90
2019-03-08T03:25:22.671Z,99.90
2019-03-08T03:27:51.195Z,99.90
2019-03-08T03:30:22.522Z,99.90
2019-03-08T03:32:51.138Z,99.90
2019-03-08T03:35:19.930Z,99.90
2019-03-08T03:37:48.693Z,99.90
2019-03-08T03:40:19.435Z,99.90
2019-03-08T03:42:48.142Z,99.90
2019-03-08T03:45:20.911Z,99.90
2019-03-08T03:47:49.587Z,99.90
2019-03-08T03:50:18.713Z,99.90
2019-03-08T03:52:47.589Z,99.90
2019-03-08T03:55:17.654Z,99.90
2019-03-08T03:57:46.479Z,99.90
2019-03-08T04:00:23.726Z,99.90
2019-03-08T04:02:52.322Z,99.90
2019-03-08T04:05:21.133Z,99.90
2019-03-08T04:07:49.763Z,99.90
2019-03-08T04:10:18.835Z,99.90
2019-03-08T04:12:47.486Z,99.90
2019-03-08T04:15:18.457Z,99.90
2019-03-08T04:17:47.256Z,99.90
2019-03-08T04:20:17.390Z,99.90
2019-03-08T04:22:46.259Z,99.90
2019-03-08T04:25:15.103Z,99.90
2019-03-08T04:27:43.633Z,99.90
2019-03-08T04:30:17.236Z,99.90
2019-03-08T04:32:45.945Z,99.90
2019-03-08T04:35:14.389Z,99.90
2019-03-08T04:37:42.964Z,99.90
2019-03-08T04:40:13.269Z,99.90
2019-03-08T04:42:41.871Z,99.90
2019-03-08T04:45:15.518Z,99.90
2019-03-08T04:47:44.523Z,99.90
2019-03-08T04:50:15.053Z,99.90
2019-03-08T04:52:43.561Z,99.90
2019-03-08T04:55:18.333Z,99.90
2019-03-08T04:57:47.277Z,99.90
2019-03-08T05:00:18.211Z,99.90
2019-03-08T05:02:46.769Z,99.90
2019-03-08T05:05:15.297Z,99.90
2019-03-08T05:07:44.277Z,99.90
2019-03-08T05:10:17.773Z,99.90
2019-03-08T05:12:46.309Z,99.90
2019-03-08T05:15:15.477Z,99.90
2019-03-08T05:17:43.964Z,99.90
2019-03-08T05:20:12.971Z,99.90
2019-03-08T05:22:41.538Z,99.90
2019-03-08T05:25:12.037Z,99.90
2019-03-08T05:27:40.562Z,99.90
2019-03-08T05:30:13.992Z,99.90
2019-03-08T05:32:42.578Z,99.90
2019-03-08T05:35:11.553Z,99.90
2019-03-08T05:37:40.169Z,99.90
2019-03-08T05:40:11.255Z,99.90
2019-03-08T05:42:40.279Z,99.90
2019-03-08T05:45:10.758Z,99.90
2019-03-08T05:47:39.206Z,99.90
2019-03-08T05:50:09.679Z,99.90
2019-03-08T05:52:38.205Z,99.90
2019-03-08T05:55:11.323Z,99.90
2019-03-08T05:57:39.919Z,99.90
2019-03-08T06:00:34.926Z,99.90
2019-03-08T06:03:04.131Z,99.90
2019-03-08T06:05:32.643Z,99.90
2019-03-08T06:08:01.135Z,99.90
2019-03-08T06:10:31.425Z,99.90
2019-03-08T06:13:01.277Z,99.60
2019-03-08T06:15:29.925Z,99.30
2019-03-08T06:17:58.653Z,99.00
2019-03-08T06:20:27.136Z,98.80
2019-03-08T06:22:56.102Z,98.60
2019-03-08T06:25:24.745Z,98.40
2019-03-08T06:27:53.368Z,98.00
2019-03-08T06:30:21.887Z,97.90
2019-03-08T06:32:50.788Z,97.70
2019-03-08T06:35:19.306Z,97.40
2019-03-08T06:38:07.179Z,97.10
2019-03-08T06:40:35.715Z,96.90
2019-03-08T06:43:04.230Z,96.70
2019-03-08T06:45:32.673Z,96.40
2019-03-08T06:48:01.254Z,96.00
2019-03-08T06:50:29.787Z,95.90
2019-03-08T06:52:58.318Z,95.70
2019-03-08T06:55:27.016Z,95.30
2019-03-08T06:57:58.243Z,95.10
2019-03-08T07:00:31.177Z,94.80
2019-03-08T07:02:59.707Z,94.60
2019-03-08T07:05:28.250Z,94.00
2019-03-08T07:07:57.301Z,93.90
2019-03-08T07:10:25.839Z,93.60
2019-03-08T07:13:02.820Z,93.40
2019-03-08T07:15:24.721Z,93.10
2019-03-08T07:17:53.258Z,92.70
2019-03-08T07:20:23.421Z,92.40
2019-03-08T07:23:11.673Z,92.50
2019-03-08T07:25:57.779Z,92.00
2019-03-08T07:28:39.928Z,91.80
2019-03-08T07:31:25.978Z,91.40
2019-03-08T07:33:58.723Z,91.30
2019-03-08T07:36:47.027Z,91.30
2019-03-08T07:39:34.881Z,91.40
2019-03-08T07:42:07.870Z,90.80
2019-03-08T07:44:40.754Z,90.50
2019-03-08T07:47:10.941Z,90.40
2019-03-08T07:49:57.083Z,90.00
2019-03-08T07:52:29.895Z,90.00
2019-03-08T07:55:00.312Z,89.30
2019-03-08T07:57:36.427Z,88.60
2019-03-08T08:00:18.669Z,88.60
2019-03-08T08:03:04.473Z,89.10
2019-03-08T08:05:35.746Z,89.00
2019-03-08T08:08:11.900Z,88.60
2019-03-08T08:10:58.458Z,86.60
2019-03-08T08:13:28.648Z,86.40
2019-03-08T08:16:07.739Z,85.40
2019-03-08T08:18:43.731Z,85.60
2019-03-08T08:21:22.761Z,85.40
2019-03-08T08:24:09.429Z,84.50
2019-03-08T08:26:55.618Z,83.40
2019-03-08T08:29:35.080Z,82.70
2019-03-08T08:32:14.926Z,82.20
2019-03-08T08:34:56.959Z,82.10
2019-03-08T08:37:39.054Z,81.00
2019-03-08T08:40:11.759Z,80.60
2019-03-08T08:42:47.771Z,80.70
2019-03-08T08:45:20.770Z,79.90
2019-03-08T08:47:51.252Z,80.20
2019-03-08T08:50:27.496Z,79.90
2019-03-08T08:53:06.736Z,78.70
2019-03-08T08:55:45.617Z,79.20
2019-03-08T08:58:21.637Z,77.60
2019-03-08T09:01:08.185Z,76.30
2019-03-08T09:03:40.902Z,76.00
2019-03-08T09:06:23.076Z,75.30
2019-03-08T09:08:53.297Z,74.60
2019-03-08T09:11:24.475Z,73.10
2019-03-08T09:13:54.643Z,73.00
2019-03-08T09:16:34.127Z,71.80
2019-03-08T09:19:04.337Z,71.10
2019-03-08T09:21:34.513Z,71.50
2019-03-08T09:24:19.541Z,71.60
2019-03-08T09:27:04.714Z,71.30
2019-03-08T09:29:43.932Z,68.60
2019-03-08T09:32:20.046Z,68.20
2019-03-08T09:34:53.063Z,68.50
2019-03-08T09:37:23.239Z,68.30
2019-03-08T09:39:59.330Z,67.30
2019-03-08T09:42:35.673Z,66.70
2019-03-08T09:45:08.074Z,66.90
2019-03-08T09:47:38.236Z,66.50
2019-03-08T09:50:10.085Z,66.10
2019-03-08T09:52:40.266Z,65.60
2019-03-08T09:55:18.404Z,66.00
2019-03-08T09:57:48.601Z,66.40
2019-03-08T10:00:24.454Z,66.00
2019-03-08T10:03:06.235Z,65.60
2019-03-08T10:05:52.600Z,65.70
2019-03-08T10:08:42.104Z,65.90
2019-03-08T10:11:12.292Z,66.00
2019-03-08T10:13:45.211Z,66.40
2019-03-08T10:16:15.387Z,66.70
2019-03-08T10:19:01.601Z,67.10
2019-03-08T10:21:40.611Z,65.60
2019-03-08T10:24:11.367Z,63.70
2019-03-08T10:26:47.337Z,62.00
2019-03-08T10:29:17.517Z,61.10
2019-03-08T10:31:47.691Z,61.10
2019-03-08T10:34:34.239Z,61.00
2019-03-08T10:37:04.443Z,60.60
2019-03-08T10:39:40.395Z,60.20
2019-03-08T10:42:13.201Z,59.80
2019-03-08T10:44:43.359Z,58.80
2019-03-08T10:47:16.118Z,57.70
2019-03-08T10:49:54.738Z,58.00
2019-03-08T10:52:23.890Z,57.80
2019-03-08T10:55:12.208Z,57.90
2019-03-08T10:57:51.424Z,57.60
2019-03-08T11:00:27.560Z,58.00
2019-03-08T11:03:15.992Z,58.30
2019-03-08T11:06:02.286Z,58.40
2019-03-08T11:08:47.480Z,57.40
2019-03-08T11:11:17.562Z,57.50
2019-03-08T11:13:56.458Z,57.90
2019-03-08T11:16:43.703Z,57.70
2019-03-08T11:19:27.609Z,57.70
2019-03-08T11:22:16.165Z,57.10
2019-03-08T11:24:46.381Z,57.00
2019-03-08T11:27:32.793Z,57.10
2019-03-08T11:30:19.318Z,57.40
2019-03-08T11:32:49.525Z,57.50
2019-03-08T11:35:36.584Z,57.60
2019-03-08T11:38:07.200Z,57.50
2019-03-08T11:40:55.601Z,58.00
2019-03-08T11:43:25.770Z,58.00
2019-03-08T11:46:10.695Z,57.30
2019-03-08T11:48:40.886Z,57.50
2019-03-08T11:51:19.650Z,58.10
2019-03-08T11:53:56.409Z,57.80
2019-03-08T11:56:32.605Z,58.10
2019-03-08T11:59:08.916Z,58.50
2019-03-08T12:01:54.342Z,58.50
2019-03-08T12:04:24.547Z,58.70
2019-03-08T12:07:03.663Z,58.40
2019-03-08T12:09:39.671Z,58.40
2019-03-08T12:12:24.769Z,58.40
2019-03-08T12:15:09.843Z,58.60
2019-03-08T12:17:40.037Z,58.40
2019-03-08T12:20:12.642Z,58.70
2019-03-08T12:22:42.807Z,59.20
2019-03-08T12:25:16.074Z,59.30
2019-03-08T12:27:46.250Z,59.70
2019-03-08T12:30:25.431Z,59.80
2019-03-08T12:33:01.567Z,60.10
2019-03-08T12:35:31.667Z,60.50
2019-03-08T12:40:42.830Z,59.80
2019-03-08T12:43:15.831Z,59.80
2019-03-08T12:45:46.023Z,59.60
2019-03-08T12:48:32.270Z,59.10
2019-03-08T12:51:17.683Z,59.40
2019-03-08T12:53:47.871Z,59.00
2019-03-08T12:56:26.942Z,59.30
2019-03-08T12:58:57.123Z,59.40
2019-03-08T13:01:33.256Z,59.60
2019-03-08T13:04:19.540Z,59.60
2019-03-08T13:07:07.706Z,59.80
2019-03-08T13:09:37.875Z,59.90
2019-03-08T13:12:06.479Z,60.10
2019-03-08T13:14:35.005Z,60.30
2019-03-08T13:17:03.546Z,60.70
2019-03-08T13:19:32.082Z,60.90
2019-03-08T13:22:00.613Z,60.80
2019-03-08T13:24:29.162Z,60.90
2019-03-08T13:26:57.710Z,60.80
2019-03-08T13:29:26.256Z,60.80
2019-03-08T13:31:54.781Z,60.80
2019-03-08T13:34:23.329Z,60.80
2019-03-08T13:36:52.473Z,60.80
2019-03-08T13:39:20.992Z,60.90
2019-03-08T13:41:49.542Z,61.30
2019-03-08T13:44:18.161Z,61.50
2019-03-08T13:46:46.700Z,61.60
2019-03-08T13:49:15.305Z,61.50
2019-03-08T13:51:43.836Z,61.10
2019-03-08T13:54:12.588Z,60.80
2019-03-08T13:56:41.884Z,60.20
2019-03-08T13:59:10.421Z,59.50
2019-03-08T14:01:38.885Z,59.10
2019-03-08T14:04:07.385Z,58.60
2019-03-08T14:06:35.913Z,58.30
2019-03-08T14:09:06.583Z,58.70
2019-03-08T14:11:35.042Z,58.80
2019-03-08T14:14:04.647Z,59.20
2019-03-08T14:16:33.206Z,59.30
2019-03-08T14:19:02.247Z,59.30
2019-03-08T14:21:30.783Z,59.90
2019-03-08T14:23:59.311Z,60.10
2019-03-08T14:26:27.849Z,60.50
2019-03-08T14:28:56.389Z,60.70
2019-03-08T14:31:32.147Z,61.00
2019-03-08T14:34:00.707Z,61.70
2019-03-08T14:36:29.310Z,61.90
2019-03-08T14:38:57.843Z,62.20
2019-03-08T14:41:31.851Z,62.20
2019-03-08T14:44:08.140Z,62.50
2019-03-08T14:46:41.240Z,62.70
2019-03-08T14:49:09.699Z,63.10
2019-03-08T14:51:38.191Z,63.20
2019-03-08T14:54:09.803Z,63.70
2019-03-08T14:56:37.506Z,63.90
2019-03-08T14:59:06.121Z,63.70
2019-03-08T15:01:34.641Z,63.90
2019-03-08T15:04:03.113Z,63.30
2019-03-08T15:06:31.644Z,63.00
2019-03-08T15:09:00.106Z,62.20
2019-03-08T15:11:28.658Z,60.90
2019-03-08T15:13:58.994Z,60.50
2019-03-08T15:16:27.448Z,60.30
2019-03-08T15:18:55.966Z,60.30
2019-03-08T15:21:24.502Z,60.30
2019-03-08T15:24:12.377Z,60.70
2019-03-08T15:26:40.966Z,60.30
2019-03-08T15:29:09.476Z,60.50
2019-03-08T15:31:38.279Z,59.90
2019-03-08T15:34:07.111Z,60.10
2019-03-08T15:36:35.641Z,60.50
2019-03-08T15:39:05.665Z,60.60
2019-03-08T15:41:34.186Z,61.10
2019-03-08T15:44:02.716Z,61.50
2019-03-08T15:46:31.165Z,61.70
2019-03-08T15:48:59.696Z,61.70
2019-03-08T15:51:28.240Z,61.80
2019-03-08T15:53:56.705Z,62.00
2019-03-08T15:56:25.230Z,62.40
2019-03-08T15:58:53.688Z,62.50
2019-03-08T16:01:22.679Z,62.40
2019-03-08T16:03:51.161Z,62.50
2019-03-08T16:06:19.895Z,62.80
2019-03-08T16:08:48.730Z,62.90
2019-03-08T16:11:17.184Z,63.10
2019-03-08T16:13:45.758Z,63.30
2019-03-08T16:16:14.294Z,63.40
2019-03-08T16:18:44.455Z,63.60
2019-03-08T16:21:13.337Z,63.70
2019-03-08T16:23:42.979Z,63.70
2019-03-08T16:26:11.468Z,63.70
2019-03-08T16:28:40.006Z,63.60
2019-03-08T16:31:12.490Z,64.00
2019-03-08T16:33:42.376Z,64.20
2019-03-08T16:36:12.605Z,64.20
2019-03-08T16:38:51.819Z,64.10
2019-03-08T16:41:33.859Z,64.20
2019-03-08T16:44:19.926Z,64.20
2019-03-08T16:46:49.884Z,64.70
2019-03-08T16:49:19.923Z,64.60
2019-03-08T16:51:50.030Z,64.80
2019-03-08T16:54:25.636Z,64.60
2019-03-08T16:57:14.082Z,64.70
2019-03-08T16:59:44.187Z,64.70
2019-03-08T17:02:14.286Z,64.70
2019-03-08T17:04:53.448Z,64.40
2019-03-08T17:07:23.603Z,65.40
2019-03-08T17:10:02.791Z,70.40
2019-03-08T17:12:32.954Z,79.60
2019-03-08T17:15:20.059Z,88.00
2019-03-08T17:18:08.080Z,92.70
2019-03-08T17:20:55.136Z,95.20
2019-03-08T17:23:41.581Z,96.50
2019-03-08T17:26:17.788Z,97.70
2019-03-08T17:28:50.493Z,98.50
2019-03-08T17:31:26.647Z,99.30
2019-03-08T17:34:14.629Z,99.90
2019-03-08T17:36:45.041Z,99.90
2019-03-08T17:39:15.216Z,99.90
2019-03-08T17:42:01.511Z,99.90
2019-03-08T17:44:43.138Z,99.90
2019-03-08T17:47:19.220Z,99.90
2019-03-08T17:49:52.102Z,99.90
2019-03-08T17:52:38.891Z,99.90
2019-03-08T17:55:28.088Z,99.90
2019-03-08T17:57:58.187Z,99.90
2019-03-08T18:00:28.584Z,99.90
2019-03-08T18:02:58.689Z,99.90
2019-03-08T18:05:31.467Z,99.90
2019-03-08T18:08:19.138Z,99.90
2019-03-08T18:10:54.853Z,99.90
2019-03-08T18:13:40.437Z,99.90
2019-03-08T18:16:17.131Z,99.90
2019-03-08T18:18:56.167Z,99.90
2019-03-08T18:21:30.100Z,99.90
2019-03-08T18:24:00.363Z,99.90
2019-03-08T18:26:36.166Z,99.90
2019-03-08T18:29:06.452Z,99.90
2019-03-08T18:31:42.732Z,99.90
2019-03-08T18:34:18.748Z,99.90
2019-03-08T18:36:48.901Z,99.90
2019-03-08T18:39:24.658Z,99.90
2019-03-08T18:42:09.640Z,99.90
2019-03-08T18:44:39.801Z,99.90
2019-03-08T18:47:09.907Z,99.90
2019-03-08T18:49:56.190Z,99.90
2019-03-08T18:52:42.546Z,99.90
2019-03-08T18:55:18.275Z,99.90
2019-03-08T18:57:48.439Z,99.90
2019-03-08T19:00:35.539Z,99.90
2019-03-08T19:03:05.692Z,99.90
2019-03-08T19:05:35.950Z,99.90
2019-03-08T19:08:15.104Z,99.90
2019-03-08T19:11:01.783Z,99.90
2019-03-08T19:13:31.955Z,99.90
2019-03-08T19:16:04.690Z,99.90
2019-03-08T19:18:37.570Z,99.90
2019-03-08T19:21:10.291Z,99.90
2019-03-08T19:23:43.258Z,99.90
2019-03-08T19:26:16.116Z,99.90
2019-03-08T19:29:04.545Z,99.90
2019-03-08T19:31:49.575Z,99.90
2019-03-08T19:34:34.746Z,99.90
2019-03-08T19:37:07.479Z,99.90
2019-03-08T19:39:37.574Z,99.90
2019-03-08T19:42:13.990Z,99.90
2019-03-08T19:44:44.097Z,99.90
2019-03-08T19:47:14.253Z,99.90
2019-03-08T19:50:00.953Z,99.90
2019-03-08T19:52:33.893Z,99.90
2019-03-08T19:55:04.018Z,99.90
2019-03-08T19:57:34.191Z,99.90
2019-03-08T20:00:19.439Z,99.90
2019-03-08T20:03:06.037Z,99.90
2019-03-08T20:05:36.159Z,99.90
2019-03-08T20:08:15.359Z,99.90
2019-03-08T20:11:01.767Z,99.90
2019-03-08T20:13:31.937Z,99.90
2019-03-08T20:16:11.070Z,99.90
2019-03-08T20:18:50.120Z,99.90
2019-03-08T20:21:22.779Z,99.90
2019-03-08T20:23:58.694Z,99.90
2019-03-08T20:26:28.925Z,99.90
2019-03-08T20:28:59.013Z,99.90
2019-03-08T20:31:34.994Z,99.90
2019-03-08T20:34:05.082Z,99.90
2019-03-08T20:36:35.255Z,99.90
2019-03-08T20:39:09.202Z,99.90
2019-03-08T20:41:42.283Z,99.90
2019-03-08T20:44:21.622Z,99.90
2019-03-08T20:46:51.774Z,99.90
2019-03-08T20:49:20.226Z,99.90
2019-03-08T20:51:48.740Z,99.90
2019-03-08T20:54:17.230Z,99.90
2019-03-08T20:56:46.018Z,99.90
2019-03-08T20:59:14.487Z,99.90
2019-03-08T21:01:43.016Z,99.90
2019-03-08T21:04:11.551Z,99.90
2019-03-08T21:06:40.130Z,99.90
2019-03-08T21:09:09.996Z,99.90
2019-03-08T21:11:38.819Z,99.90
2019-03-08T21:14:07.357Z,99.90
2019-03-08T21:16:37.379Z,99.90
2019-03-08T21:19:06.132Z,99.90
2019-03-08T21:21:34.692Z,99.90
2019-03-08T21:24:03.376Z,99.90
2019-03-08T21:26:31.844Z,99.90
2019-03-08T21:29:00.401Z,99.90
2019-03-08T21:31:28.999Z,99.90
2019-03-08T21:33:57.470Z,99.90
2019-03-08T21:36:25.990Z,99.90
2019-03-08T21:38:54.738Z,99.90
2019-03-08T21:41:23.315Z,99.90
2019-03-08T21:43:51.853Z,99.90
2019-03-08T21:46:20.378Z,99.90
2019-03-08T21:48:48.977Z,99.90
2019-03-08T21:51:17.503Z,99.90
2019-03-08T21:53:46.044Z,99.90
2019-03-08T21:56:33.902Z,99.90
2019-03-08T21:59:02.397Z,99.90
2019-03-08T22:01:31.323Z,99.90
2019-03-08T22:04:01.439Z,99.90
2019-03-08T22:06:29.967Z,99.90
2019-03-08T22:09:04.321Z,99.90
2019-03-08T22:11:37.294Z,99.90
2019-03-08T22:14:05.826Z,99.90
2019-03-08T22:16:34.347Z,99.90
2019-03-08T22:19:22.235Z,99.90
2019-03-08T22:21:51.115Z,99.90
2019-03-08T22:24:22.542Z,99.90
2019-03-08T22:26:51.088Z,99.90
2019-03-08T22:29:19.627Z,99.90
2019-03-08T22:31:48.152Z,99.90
2019-03-08T22:34:16.621Z,99.90
2019-03-08T22:36:45.526Z,99.90
2019-03-08T22:39:14.058Z,99.90
2019-03-08T22:41:42.518Z,99.90
2019-03-08T22:44:10.981Z,99.90
2019-03-08T22:46:45.316Z,99.90
2019-03-08T22:49:09.610Z,99.90
2019-03-08T22:51:38.187Z,99.90
2019-03-08T22:54:06.725Z,99.90
2019-03-08T22:56:35.179Z,99.90
2019-03-08T22:59:03.639Z,99.90
2019-03-08T23:01:42.911Z,99.90
2019-03-08T23:04:11.387Z,99.90
2019-03-08T23:06:39.925Z,99.90
2019-03-08T23:09:10.814Z,99.90
2019-03-08T23:11:39.343Z,99.90
2019-03-08T23:14:08.252Z,99.90
2019-03-08T23:16:36.742Z,99.90
2019-03-08T23:19:05.481Z,99.90
2019-03-08T23:21:34.004Z,99.90
2019-03-08T23:24:02.490Z,99.90
2019-03-08T23:26:33.494Z,99.90
2019-03-08T23:29:03.668Z,99.90
2019-03-08T23:31:39.549Z,99.90
2019-03-08T23:34:08.213Z,99.90
2019-03-08T23:36:36.803Z,99.90
2019-03-08T23:39:08.186Z,99.90
2019-03-08T23:41:36.709Z,99.90
2019-03-08T23:44:05.243Z,99.90
2019-03-08T23:46:33.956Z,99.90
2019-03-08T23:49:02.418Z,99.90
2019-03-08T23:51:31.349Z,99.90
2019-03-08T23:53:59.869Z,99.90
2019-03-08T23:56:28.351Z,99.90
2019-03-08T23:58:56.810Z,99.90
